sensor_id;sensor_type;location;lat;lon;timestamp;P1;durP1;ratioP1;P2;durP2;ratioP2
7969;SDS011;4030;52.362;9.206;2023-04-24T00:00:10;0.68;;;0.50;;
7969;SDS011;4030;52.362;9.206;2023-04-24T00:02:39;0.57;;;0.55;;
7969;SDS011;4030;52.362;9.206;2023-04-24T00:05:09;0.47;;;0.47;;
7969;SDS011;4030;52.362;9.206;2023-04-24T00:07:35;1.08;;;0.60;;
7969;SDS011;4030;52.362;9.206;2023-04-24T00:10:01;0.85;;;0.60;;
7969;SDS011;4030;52.362;9.206;2023-04-24T00:12:27;0.50;;;0.50;;
7969;SDS011;4030;52.362;9.206;2023-04-24T00:14:53;0.63;;;0.63;;
7969;SDS011;4030;52.362;9.206;2023-04-24T00:17:19;0.80;;;0.60;;
7969;SDS011;4030;52.362;9.206;2023-04-24T00:19:46;0.82;;;0.70;;
7969;SDS011;4030;52.362;9.206;2023-04-24T00:22:14;0.50;;;0.43;;
7969;SDS011;4030;52.362;9.206;2023-04-24T00:24:39;1.23;;;0.60;;
7969;SDS011;4030;52.362;9.206;2023-04-24T00:27:06;0.50;;;0.50;;
7969;SDS011;4030;52.362;9.206;2023-04-24T00:29:31;1.00;;;0.50;;
7969;SDS011;4030;52.362;9.206;2023-04-24T00:31:57;0.77;;;0.57;;
7969;SDS011;4030;52.362;9.206;2023-04-24T00:34:23;0.60;;;0.60;;
7969;SDS011;4030;52.362;9.206;2023-04-24T00:36:49;0.50;;;0.50;;
7969;SDS011;4030;52.362;9.206;2023-04-24T00:39:17;1.70;;;0.68;;
7969;SDS011;4030;52.362;9.206;2023-04-24T00:41:47;1.58;;;0.60;;
7969;SDS011;4030;52.362;9.206;2023-04-24T00:44:13;0.70;;;0.40;;
7969;SDS011;4030;52.362;9.206;2023-04-24T00:46:40;0.40;;;0.40;;
7969;SDS011;4030;52.362;9.206;2023-04-24T00:49:06;0.98;;;0.43;;
7969;SDS011;4030;52.362;9.206;2023-04-24T00:51:32;0.35;;;0.35;;
7969;SDS011;4030;52.362;9.206;2023-04-24T00:53:59;0.75;;;0.40;;
7969;SDS011;4030;52.362;9.206;2023-04-24T00:56:26;0.40;;;0.40;;
7969;SDS011;4030;52.362;9.206;2023-04-24T00:58:52;0.40;;;0.40;;
7969;SDS011;4030;52.362;9.206;2023-04-24T01:01:21;0.63;;;0.40;;
7969;SDS011;4030;52.362;9.206;2023-04-24T01:03:48;0.40;;;0.40;;
7969;SDS011;4030;52.362;9.206;2023-04-24T01:06:15;0.40;;;0.40;;
7969;SDS011;4030;52.362;9.206;2023-04-24T01:08:43;0.20;;;0.20;;
7969;SDS011;4030;52.362;9.206;2023-04-24T01:11:11;0.30;;;0.30;;
7969;SDS011;4030;52.362;9.206;2023-04-24T01:13:37;0.68;;;0.40;;
7969;SDS011;4030;52.362;9.206;2023-04-24T01:16:03;0.35;;;0.35;;
7969;SDS011;4030;52.362;9.206;2023-04-24T01:18:29;0.30;;;0.30;;
7969;SDS011;4030;52.362;9.206;2023-04-24T01:20:58;0.20;;;0.20;;
7969;SDS011;4030;52.362;9.206;2023-04-24T01:23:25;0.30;;;0.30;;
7969;SDS011;4030;52.362;9.206;2023-04-24T01:25:51;0.30;;;0.30;;
7969;SDS011;4030;52.362;9.206;2023-04-24T01:28:17;0.38;;;0.38;;
7969;SDS011;4030;52.362;9.206;2023-04-24T01:30:44;0.30;;;0.30;;
7969;SDS011;4030;52.362;9.206;2023-04-24T01:33:10;0.35;;;0.30;;
7969;SDS011;4030;52.362;9.206;2023-04-24T01:35:36;0.30;;;0.30;;
7969;SDS011;4030;52.362;9.206;2023-04-24T01:38:02;0.88;;;0.40;;
7969;SDS011;4030;52.362;9.206;2023-04-24T01:40:28;0.40;;;0.40;;
7969;SDS011;4030;52.362;9.206;2023-04-24T01:42:54;0.35;;;0.35;;
7969;SDS011;4030;52.362;9.206;2023-04-24T01:45:20;0.25;;;0.25;;
7969;SDS011;4030;52.362;9.206;2023-04-24T01:47:46;0.40;;;0.40;;
7969;SDS011;4030;52.362;9.206;2023-04-24T01:50:14;0.40;;;0.40;;
7969;SDS011;4030;52.362;9.206;2023-04-24T01:52:40;0.80;;;0.30;;
7969;SDS011;4030;52.362;9.206;2023-04-24T01:55:06;1.75;;;0.43;;
7969;SDS011;4030;52.362;9.206;2023-04-24T01:57:33;0.40;;;0.38;;
7969;SDS011;4030;52.362;9.206;2023-04-24T01:59:59;0.40;;;0.40;;
7969;SDS011;4030;52.362;9.206;2023-04-24T02:02:25;0.40;;;0.40;;
7969;SDS011;4030;52.362;9.206;2023-04-24T02:04:52;0.30;;;0.30;;
7969;SDS011;4030;52.362;9.206;2023-04-24T02:07:19;0.50;;;0.30;;
7969;SDS011;4030;52.362;9.206;2023-04-24T02:09:45;0.30;;;0.30;;
7969;SDS011;4030;52.362;9.206;2023-04-24T02:12:11;0.30;;;0.30;;
7969;SDS011;4030;52.362;9.206;2023-04-24T02:14:36;0.30;;;0.30;;
7969;SDS011;4030;52.362;9.206;2023-04-24T02:17:02;0.68;;;0.30;;
7969;SDS011;4030;52.362;9.206;2023-04-24T02:19:28;0.30;;;0.30;;
7969;SDS011;4030;52.362;9.206;2023-04-24T02:21:54;0.30;;;0.30;;
7969;SDS011;4030;52.362;9.206;2023-04-24T02:24:20;0.40;;;0.40;;
7969;SDS011;4030;52.362;9.206;2023-04-24T02:26:46;0.45;;;0.45;;
7969;SDS011;4030;52.362;9.206;2023-04-24T02:29:12;0.30;;;0.30;;
7969;SDS011;4030;52.362;9.206;2023-04-24T02:31:39;0.35;;;0.32;;
7969;SDS011;4030;52.362;9.206;2023-04-24T02:34:05;0.47;;;0.47;;
7969;SDS011;4030;52.362;9.206;2023-04-24T02:36:31;0.30;;;0.30;;
7969;SDS011;4030;52.362;9.206;2023-04-24T02:38:57;0.50;;;0.40;;
7969;SDS011;4030;52.362;9.206;2023-04-24T02:41:23;0.30;;;0.30;;
7969;SDS011;4030;52.362;9.206;2023-04-24T02:43:49;0.35;;;0.35;;
7969;SDS011;4030;52.362;9.206;2023-04-24T02:46:15;0.60;;;0.40;;
7969;SDS011;4030;52.362;9.206;2023-04-24T02:48:41;0.85;;;0.43;;
7969;SDS011;4030;52.362;9.206;2023-04-24T02:51:07;0.30;;;0.30;;
7969;SDS011;4030;52.362;9.206;2023-04-24T02:53:34;0.38;;;0.38;;
7969;SDS011;4030;52.362;9.206;2023-04-24T02:55:59;0.43;;;0.43;;
7969;SDS011;4030;52.362;9.206;2023-04-24T02:58:25;0.68;;;0.40;;
7969;SDS011;4030;52.362;9.206;2023-04-24T03:00:54;0.40;;;0.40;;
7969;SDS011;4030;52.362;9.206;2023-04-24T03:03:21;0.50;;;0.50;;
7969;SDS011;4030;52.362;9.206;2023-04-24T03:05:47;0.90;;;0.55;;
7969;SDS011;4030;52.362;9.206;2023-04-24T03:08:12;0.40;;;0.40;;
7969;SDS011;4030;52.362;9.206;2023-04-24T03:10:39;0.50;;;0.50;;
7969;SDS011;4030;52.362;9.206;2023-04-24T03:13:05;0.65;;;0.55;;
7969;SDS011;4030;52.362;9.206;2023-04-24T03:15:30;0.50;;;0.50;;
7969;SDS011;4030;52.362;9.206;2023-04-24T03:17:56;0.68;;;0.50;;
7969;SDS011;4030;52.362;9.206;2023-04-24T03:20:22;2.05;;;0.65;;
7969;SDS011;4030;52.362;9.206;2023-04-24T03:22:48;0.68;;;0.50;;
7969;SDS011;4030;52.362;9.206;2023-04-24T03:25:14;0.50;;;0.50;;
7969;SDS011;4030;52.362;9.206;2023-04-24T03:27:40;0.50;;;0.50;;
7969;SDS011;4030;52.362;9.206;2023-04-24T03:30:06;0.50;;;0.50;;
7969;SDS011;4030;52.362;9.206;2023-04-24T03:32:33;0.40;;;0.40;;
7969;SDS011;4030;52.362;9.206;2023-04-24T03:34:58;0.40;;;0.40;;
7969;SDS011;4030;52.362;9.206;2023-04-24T03:37:25;0.70;;;0.50;;
7969;SDS011;4030;52.362;9.206;2023-04-24T03:39:51;0.65;;;0.50;;
7969;SDS011;4030;52.362;9.206;2023-04-24T03:42:17;0.90;;;0.60;;
7969;SDS011;4030;52.362;9.206;2023-04-24T03:44:43;0.47;;;0.47;;
7969;SDS011;4030;52.362;9.206;2023-04-24T03:47:08;0.50;;;0.50;;
7969;SDS011;4030;52.362;9.206;2023-04-24T03:49:35;0.85;;;0.50;;
7969;SDS011;4030;52.362;9.206;2023-04-24T03:52:01;1.35;;;0.52;;
7969;SDS011;4030;52.362;9.206;2023-04-24T03:54:27;0.43;;;0.40;;
7969;SDS011;4030;52.362;9.206;2023-04-24T03:56:53;1.15;;;0.50;;
7969;SDS011;4030;52.362;9.206;2023-04-24T03:59:19;0.60;;;0.60;;
7969;SDS011;4030;52.362;9.206;2023-04-24T04:01:45;0.45;;;0.45;;
7969;SDS011;4030;52.362;9.206;2023-04-24T04:04:11;0.70;;;0.60;;
7969;SDS011;4030;52.362;9.206;2023-04-24T04:06:37;1.10;;;0.50;;
7969;SDS011;4030;52.362;9.206;2023-04-24T04:09:03;2.30;;;0.52;;
7969;SDS011;4030;52.362;9.206;2023-04-24T04:11:29;0.50;;;0.50;;
7969;SDS011;4030;52.362;9.206;2023-04-24T04:13:55;0.60;;;0.60;;
7969;SDS011;4030;52.362;9.206;2023-04-24T04:16:22;0.50;;;0.50;;
7969;SDS011;4030;52.362;9.206;2023-04-24T04:18:48;1.25;;;0.47;;
7969;SDS011;4030;52.362;9.206;2023-04-24T04:21:13;0.50;;;0.50;;
7969;SDS011;4030;52.362;9.206;2023-04-24T04:23:40;1.73;;;0.57;;
7969;SDS011;4030;52.362;9.206;2023-04-24T04:26:06;0.50;;;0.50;;
7969;SDS011;4030;52.362;9.206;2023-04-24T04:28:32;0.80;;;0.70;;
7969;SDS011;4030;52.362;9.206;2023-04-24T04:30:58;1.08;;;0.52;;
7969;SDS011;4030;52.362;9.206;2023-04-24T04:33:24;0.98;;;0.55;;
7969;SDS011;4030;52.362;9.206;2023-04-24T04:35:50;0.90;;;0.50;;
7969;SDS011;4030;52.362;9.206;2023-04-24T04:38:23;0.93;;;0.52;;
7969;SDS011;4030;52.362;9.206;2023-04-24T04:40:49;0.90;;;0.60;;
7969;SDS011;4030;52.362;9.206;2023-04-24T04:43:15;1.23;;;0.70;;
7969;SDS011;4030;52.362;9.206;2023-04-24T04:45:41;0.60;;;0.60;;
7969;SDS011;4030;52.362;9.206;2023-04-24T04:48:08;0.60;;;0.60;;
7969;SDS011;4030;52.362;9.206;2023-04-24T04:50:37;0.80;;;0.68;;
7969;SDS011;4030;52.362;9.206;2023-04-24T04:53:03;0.70;;;0.70;;
7969;SDS011;4030;52.362;9.206;2023-04-24T04:55:29;0.70;;;0.70;;
7969;SDS011;4030;52.362;9.206;2023-04-24T04:57:55;0.90;;;0.70;;
7969;SDS011;4030;52.362;9.206;2023-04-24T05:00:21;0.63;;;0.55;;
7969;SDS011;4030;52.362;9.206;2023-04-24T05:02:49;0.60;;;0.60;;
7969;SDS011;4030;52.362;9.206;2023-04-24T05:05:15;0.93;;;0.70;;
7969;SDS011;4030;52.362;9.206;2023-04-24T05:07:42;0.60;;;0.60;;
7969;SDS011;4030;52.362;9.206;2023-04-24T05:10:08;0.60;;;0.60;;
7969;SDS011;4030;52.362;9.206;2023-04-24T05:12:35;0.65;;;0.60;;
7969;SDS011;4030;52.362;9.206;2023-04-24T05:15:01;0.90;;;0.80;;
7969;SDS011;4030;52.362;9.206;2023-04-24T05:17:28;0.60;;;0.60;;
7969;SDS011;4030;52.362;9.206;2023-04-24T05:19:54;0.60;;;0.60;;
7969;SDS011;4030;52.362;9.206;2023-04-24T05:22:20;0.77;;;0.50;;
7969;SDS011;4030;52.362;9.206;2023-04-24T05:24:46;0.50;;;0.50;;
7969;SDS011;4030;52.362;9.206;2023-04-24T05:27:12;0.85;;;0.50;;
7969;SDS011;4030;52.362;9.206;2023-04-24T05:29:38;0.82;;;0.70;;
7969;SDS011;4030;52.362;9.206;2023-04-24T05:32:05;0.88;;;0.57;;
7969;SDS011;4030;52.362;9.206;2023-04-24T05:34:31;0.55;;;0.55;;
7969;SDS011;4030;52.362;9.206;2023-04-24T05:36:57;0.63;;;0.60;;
7969;SDS011;4030;52.362;9.206;2023-04-24T05:39:22;0.68;;;0.68;;
7969;SDS011;4030;52.362;9.206;2023-04-24T05:41:49;0.75;;;0.70;;
7969;SDS011;4030;52.362;9.206;2023-04-24T05:44:16;0.73;;;0.60;;
7969;SDS011;4030;52.362;9.206;2023-04-24T05:46:42;0.70;;;0.70;;
7969;SDS011;4030;52.362;9.206;2023-04-24T05:49:08;0.70;;;0.70;;
7969;SDS011;4030;52.362;9.206;2023-04-24T05:51:34;1.25;;;0.82;;
7969;SDS011;4030;52.362;9.206;2023-04-24T05:54:00;1.00;;;0.80;;
7969;SDS011;4030;52.362;9.206;2023-04-24T05:56:27;0.80;;;0.80;;
7969;SDS011;4030;52.362;9.206;2023-04-24T05:58:54;0.95;;;0.70;;
7969;SDS011;4030;52.362;9.206;2023-04-24T06:01:20;1.15;;;0.95;;
7969;SDS011;4030;52.362;9.206;2023-04-24T06:03:46;1.33;;;1.00;;
7969;SDS011;4030;52.362;9.206;2023-04-24T06:06:12;2.13;;;1.40;;
7969;SDS011;4030;52.362;9.206;2023-04-24T06:08:38;1.73;;;1.40;;
7969;SDS011;4030;52.362;9.206;2023-04-24T06:11:07;3.00;;;1.77;;
7969;SDS011;4030;52.362;9.206;2023-04-24T06:13:33;2.08;;;1.88;;
7969;SDS011;4030;52.362;9.206;2023-04-24T06:15:59;2.25;;;2.03;;
7969;SDS011;4030;52.362;9.206;2023-04-24T06:18:25;1.85;;;1.73;;
7969;SDS011;4030;52.362;9.206;2023-04-24T06:20:51;2.15;;;1.77;;
7969;SDS011;4030;52.362;9.206;2023-04-24T06:23:17;2.10;;;1.90;;
7969;SDS011;4030;52.362;9.206;2023-04-24T06:25:43;2.05;;;1.70;;
7969;SDS011;4030;52.362;9.206;2023-04-24T06:28:09;2.33;;;2.10;;
7969;SDS011;4030;52.362;9.206;2023-04-24T06:30:35;2.28;;;1.77;;
7969;SDS011;4030;52.362;9.206;2023-04-24T06:33:01;2.88;;;1.80;;
7969;SDS011;4030;52.362;9.206;2023-04-24T06:35:27;2.67;;;2.05;;
7969;SDS011;4030;52.362;9.206;2023-04-24T06:37:53;2.65;;;2.28;;
7969;SDS011;4030;52.362;9.206;2023-04-24T06:40:21;3.45;;;2.33;;
7969;SDS011;4030;52.362;9.206;2023-04-24T06:42:47;2.72;;;2.40;;
7969;SDS011;4030;52.362;9.206;2023-04-24T06:45:13;2.85;;;2.20;;
7969;SDS011;4030;52.362;9.206;2023-04-24T06:47:39;2.40;;;2.03;;
7969;SDS011;4030;52.362;9.206;2023-04-24T06:50:05;2.92;;;2.10;;
7969;SDS011;4030;52.362;9.206;2023-04-24T06:52:31;3.63;;;2.30;;
7969;SDS011;4030;52.362;9.206;2023-04-24T06:55:01;2.33;;;2.13;;
7969;SDS011;4030;52.362;9.206;2023-04-24T06:57:28;2.70;;;1.92;;
7969;SDS011;4030;52.362;9.206;2023-04-24T06:59:54;2.30;;;2.10;;
7969;SDS011;4030;52.362;9.206;2023-04-24T07:02:20;3.25;;;2.30;;
7969;SDS011;4030;52.362;9.206;2023-04-24T07:04:46;2.33;;;2.13;;
7969;SDS011;4030;52.362;9.206;2023-04-24T07:07:12;2.95;;;2.35;;
7969;SDS011;4030;52.362;9.206;2023-04-24T07:09:39;2.58;;;2.28;;
7969;SDS011;4030;52.362;9.206;2023-04-24T07:12:07;3.08;;;2.30;;
7969;SDS011;4030;52.362;9.206;2023-04-24T07:14:35;2.90;;;2.30;;
7969;SDS011;4030;52.362;9.206;2023-04-24T07:17:02;3.28;;;2.17;;
7969;SDS011;4030;52.362;9.206;2023-04-24T07:19:28;3.45;;;2.22;;
7969;SDS011;4030;52.362;9.206;2023-04-24T07:21:54;2.80;;;2.35;;
7969;SDS011;4030;52.362;9.206;2023-04-24T07:24:20;3.28;;;2.67;;
7969;SDS011;4030;52.362;9.206;2023-04-24T07:26:46;2.65;;;2.25;;
7969;SDS011;4030;52.362;9.206;2023-04-24T07:29:13;3.03;;;2.50;;
7969;SDS011;4030;52.362;9.206;2023-04-24T07:31:39;3.72;;;2.70;;
7969;SDS011;4030;52.362;9.206;2023-04-24T07:34:06;3.88;;;2.40;;
7969;SDS011;4030;52.362;9.206;2023-04-24T07:36:31;3.13;;;2.60;;
7969;SDS011;4030;52.362;9.206;2023-04-24T07:38:57;2.90;;;2.60;;
7969;SDS011;4030;52.362;9.206;2023-04-24T07:41:23;2.50;;;2.30;;
7969;SDS011;4030;52.362;9.206;2023-04-24T07:43:49;3.50;;;2.50;;
7969;SDS011;4030;52.362;9.206;2023-04-24T07:46:15;3.50;;;2.60;;
7969;SDS011;4030;52.362;9.206;2023-04-24T07:48:41;4.65;;;2.70;;
7969;SDS011;4030;52.362;9.206;2023-04-24T07:51:07;3.53;;;2.72;;
7969;SDS011;4030;52.362;9.206;2023-04-24T07:53:35;2.90;;;2.58;;
7969;SDS011;4030;52.362;9.206;2023-04-24T07:56:01;3.75;;;2.70;;
7969;SDS011;4030;52.362;9.206;2023-04-24T07:58:27;3.38;;;2.78;;
7969;SDS011;4030;52.362;9.206;2023-04-24T08:00:53;2.90;;;2.70;;
7969;SDS011;4030;52.362;9.206;2023-04-24T08:03:19;3.22;;;2.60;;
7969;SDS011;4030;52.362;9.206;2023-04-24T08:05:45;3.38;;;2.70;;
7969;SDS011;4030;52.362;9.206;2023-04-24T08:08:12;4.13;;;2.75;;
7969;SDS011;4030;52.362;9.206;2023-04-24T08:10:38;3.20;;;2.80;;
7969;SDS011;4030;52.362;9.206;2023-04-24T08:13:03;3.20;;;2.90;;
7969;SDS011;4030;52.362;9.206;2023-04-24T08:15:29;4.40;;;3.10;;
7969;SDS011;4030;52.362;9.206;2023-04-24T08:17:56;3.45;;;2.70;;
7969;SDS011;4030;52.362;9.206;2023-04-24T08:20:22;3.15;;;2.65;;
7969;SDS011;4030;52.362;9.206;2023-04-24T08:22:48;5.70;;;3.05;;
7969;SDS011;4030;52.362;9.206;2023-04-24T08:25:14;4.55;;;3.20;;
7969;SDS011;4030;52.362;9.206;2023-04-24T08:27:40;4.05;;;2.63;;
7969;SDS011;4030;52.362;9.206;2023-04-24T08:30:06;3.10;;;2.78;;
7969;SDS011;4030;52.362;9.206;2023-04-24T08:32:32;3.22;;;2.67;;
7969;SDS011;4030;52.362;9.206;2023-04-24T08:34:58;2.65;;;2.45;;
7969;SDS011;4030;52.362;9.206;2023-04-24T08:37:25;2.80;;;2.47;;
7969;SDS011;4030;52.362;9.206;2023-04-24T08:39:52;2.78;;;2.38;;
7969;SDS011;4030;52.362;9.206;2023-04-24T08:42:18;3.38;;;2.75;;
7969;SDS011;4030;52.362;9.206;2023-04-24T08:44:45;2.95;;;2.65;;
7969;SDS011;4030;52.362;9.206;2023-04-24T08:47:13;3.28;;;2.63;;
7969;SDS011;4030;52.362;9.206;2023-04-24T08:49:41;2.40;;;2.20;;
7969;SDS011;4030;52.362;9.206;2023-04-24T08:52:07;2.63;;;2.40;;
7969;SDS011;4030;52.362;9.206;2023-04-24T08:54:34;3.10;;;2.30;;
7969;SDS011;4030;52.362;9.206;2023-04-24T08:57:01;2.25;;;1.92;;
7969;SDS011;4030;52.362;9.206;2023-04-24T08:59:29;2.67;;;2.47;;
7969;SDS011;4030;52.362;9.206;2023-04-24T09:01:58;3.45;;;2.08;;
7969;SDS011;4030;52.362;9.206;2023-04-24T09:04:25;3.05;;;2.40;;
7969;SDS011;4030;52.362;9.206;2023-04-24T09:06:52;2.20;;;2.00;;
7969;SDS011;4030;52.362;9.206;2023-04-24T09:09:23;3.47;;;2.17;;
7969;SDS011;4030;52.362;9.206;2023-04-24T09:11:50;2.33;;;2.13;;
7969;SDS011;4030;52.362;9.206;2023-04-24T09:14:21;2.53;;;2.33;;
7969;SDS011;4030;52.362;9.206;2023-04-24T09:16:48;2.58;;;1.80;;
7969;SDS011;4030;52.362;9.206;2023-04-24T09:19:15;1.80;;;1.70;;
7969;SDS011;4030;52.362;9.206;2023-04-24T09:21:41;2.65;;;1.80;;
7969;SDS011;4030;52.362;9.206;2023-04-24T09:24:18;1.95;;;1.70;;
7969;SDS011;4030;52.362;9.206;2023-04-24T09:26:47;1.80;;;1.60;;
7969;SDS011;4030;52.362;9.206;2023-04-24T09:29:15;1.88;;;1.65;;
7969;SDS011;4030;52.362;9.206;2023-04-24T09:31:42;2.05;;;1.85;;
7969;SDS011;4030;52.362;9.206;2023-04-24T09:34:08;2.47;;;1.80;;
7969;SDS011;4030;52.362;9.206;2023-04-24T09:36:35;2.00;;;1.60;;
7969;SDS011;4030;52.362;9.206;2023-04-24T09:39:04;2.15;;;1.95;;
7969;SDS011;4030;52.362;9.206;2023-04-24T09:41:44;2.72;;;1.77;;
7969;SDS011;4030;52.362;9.206;2023-04-24T09:44:22;1.75;;;1.50;;
7969;SDS011;4030;52.362;9.206;2023-04-24T09:46:52;1.50;;;1.40;;
7969;SDS011;4030;52.362;9.206;2023-04-24T09:49:26;1.35;;;1.25;;
7969;SDS011;4030;52.362;9.206;2023-04-24T09:52:08;1.23;;;1.13;;
7969;SDS011;4030;52.362;9.206;2023-04-24T09:54:35;1.27;;;1.17;;
7969;SDS011;4030;52.362;9.206;2023-04-24T09:57:02;1.17;;;1.00;;
7969;SDS011;4030;52.362;9.206;2023-04-24T09:59:28;1.17;;;1.08;;
7969;SDS011;4030;52.362;9.206;2023-04-24T10:01:54;1.20;;;1.10;;
7969;SDS011;4030;52.362;9.206;2023-04-24T10:04:22;1.10;;;1.00;;
7969;SDS011;4030;52.362;9.206;2023-04-24T10:06:54;0.98;;;0.90;;
7969;SDS011;4030;52.362;9.206;2023-04-24T10:09:23;1.52;;;0.98;;
7969;SDS011;4030;52.362;9.206;2023-04-24T10:11:52;1.30;;;0.95;;
7969;SDS011;4030;52.362;9.206;2023-04-24T10:14:20;1.75;;;0.90;;
7969;SDS011;4030;52.362;9.206;2023-04-24T10:16:48;1.10;;;1.00;;
7969;SDS011;4030;52.362;9.206;2023-04-24T10:19:16;1.10;;;1.00;;
7969;SDS011;4030;52.362;9.206;2023-04-24T10:21:45;1.38;;;1.20;;
7969;SDS011;4030;52.362;9.206;2023-04-24T10:24:15;0.90;;;0.90;;
7969;SDS011;4030;52.362;9.206;2023-04-24T10:26:43;1.35;;;0.90;;
7969;SDS011;4030;52.362;9.206;2023-04-24T10:29:11;1.13;;;0.90;;
7969;SDS011;4030;52.362;9.206;2023-04-24T10:31:38;1.40;;;1.00;;
7969;SDS011;4030;52.362;9.206;2023-04-24T10:34:04;1.95;;;1.00;;
7969;SDS011;4030;52.362;9.206;2023-04-24T10:36:32;1.25;;;0.90;;
7969;SDS011;4030;52.362;9.206;2023-04-24T10:39:00;2.05;;;0.93;;
7969;SDS011;4030;52.362;9.206;2023-04-24T10:41:28;1.75;;;0.70;;
7969;SDS011;4030;52.362;9.206;2023-04-24T10:44:11;0.80;;;0.80;;
7969;SDS011;4030;52.362;9.206;2023-04-24T10:46:43;1.05;;;0.88;;
7969;SDS011;4030;52.362;9.206;2023-04-24T10:49:18;1.10;;;0.90;;
7969;SDS011;4030;52.362;9.206;2023-04-24T10:51:54;0.80;;;0.80;;
7969;SDS011;4030;52.362;9.206;2023-04-24T10:54:28;1.25;;;0.90;;
7969;SDS011;4030;52.362;9.206;2023-04-24T10:59:47;0.85;;;0.80;;
7969;SDS011;4030;52.362;9.206;2023-04-24T11:02:17;0.75;;;0.75;;
7969;SDS011;4030;52.362;9.206;2023-04-24T11:04:43;0.80;;;0.80;;
7969;SDS011;4030;52.362;9.206;2023-04-24T11:07:10;0.73;;;0.73;;
7969;SDS011;4030;52.362;9.206;2023-04-24T11:09:36;0.95;;;0.80;;
7969;SDS011;4030;52.362;9.206;2023-04-24T11:12:06;0.88;;;0.85;;
7969;SDS011;4030;52.362;9.206;2023-04-24T11:17:34;0.80;;;0.77;;
7969;SDS011;4030;52.362;9.206;2023-04-24T11:20:09;1.55;;;0.80;;
7969;SDS011;4030;52.362;9.206;2023-04-24T11:22:37;0.85;;;0.60;;
7969;SDS011;4030;52.362;9.206;2023-04-24T11:25:07;0.90;;;0.80;;
7969;SDS011;4030;52.362;9.206;2023-04-24T11:27:42;0.68;;;0.68;;
7969;SDS011;4030;52.362;9.206;2023-04-24T11:30:11;0.60;;;0.60;;
7969;SDS011;4030;52.362;9.206;2023-04-24T11:32:37;1.00;;;0.88;;
7969;SDS011;4030;52.362;9.206;2023-04-24T11:35:18;1.30;;;0.90;;
7969;SDS011;4030;52.362;9.206;2023-04-24T11:37:49;1.00;;;0.88;;
7969;SDS011;4030;52.362;9.206;2023-04-24T11:40:17;1.00;;;0.80;;
7969;SDS011;4030;52.362;9.206;2023-04-24T11:42:47;0.60;;;0.60;;
7969;SDS011;4030;52.362;9.206;2023-04-24T11:45:17;0.52;;;0.50;;
7969;SDS011;4030;52.362;9.206;2023-04-24T11:47:46;0.52;;;0.52;;
7969;SDS011;4030;52.362;9.206;2023-04-24T11:50:12;0.70;;;0.50;;
7969;SDS011;4030;52.362;9.206;2023-04-24T11:52:41;0.50;;;0.50;;
7969;SDS011;4030;52.362;9.206;2023-04-24T11:57:44;0.63;;;0.52;;
7969;SDS011;4030;52.362;9.206;2023-04-24T12:00:15;1.58;;;0.70;;
7969;SDS011;4030;52.362;9.206;2023-04-24T12:02:43;0.68;;;0.60;;
7969;SDS011;4030;52.362;9.206;2023-04-24T12:05:17;0.50;;;0.50;;
7969;SDS011;4030;52.362;9.206;2023-04-24T12:07:49;0.88;;;0.60;;
7969;SDS011;4030;52.362;9.206;2023-04-24T12:10:19;0.60;;;0.60;;
7969;SDS011;4030;52.362;9.206;2023-04-24T12:12:50;0.60;;;0.60;;
7969;SDS011;4030;52.362;9.206;2023-04-24T12:15:18;0.60;;;0.60;;
7969;SDS011;4030;52.362;9.206;2023-04-24T12:17:45;1.55;;;0.70;;
7969;SDS011;4030;52.362;9.206;2023-04-24T12:20:11;0.60;;;0.60;;
7969;SDS011;4030;52.362;9.206;2023-04-24T12:25:19;0.90;;;0.90;;
7969;SDS011;4030;52.362;9.206;2023-04-24T12:27:52;1.10;;;1.00;;
7969;SDS011;4030;52.362;9.206;2023-04-24T12:30:44;0.90;;;0.90;;
7969;SDS011;4030;52.362;9.206;2023-04-24T12:33:17;0.80;;;0.80;;
7969;SDS011;4030;52.362;9.206;2023-04-24T12:35:47;0.80;;;0.80;;
7969;SDS011;4030;52.362;9.206;2023-04-24T12:38:16;0.90;;;0.90;;
7969;SDS011;4030;52.362;9.206;2023-04-24T12:41:00;1.23;;;0.88;;
7969;SDS011;4030;52.362;9.206;2023-04-24T12:43:34;0.70;;;0.70;;
7969;SDS011;4030;52.362;9.206;2023-04-24T12:46:01;0.70;;;0.70;;
7969;SDS011;4030;52.362;9.206;2023-04-24T12:48:28;0.80;;;0.80;;
7969;SDS011;4030;52.362;9.206;2023-04-24T12:50:56;0.60;;;0.60;;
7969;SDS011;4030;52.362;9.206;2023-04-24T12:53:26;0.60;;;0.60;;
7969;SDS011;4030;52.362;9.206;2023-04-24T12:55:54;1.10;;;0.80;;
7969;SDS011;4030;52.362;9.206;2023-04-24T12:58:20;0.65;;;0.65;;
7969;SDS011;4030;52.362;9.206;2023-04-24T13:00:46;0.70;;;0.70;;
7969;SDS011;4030;52.362;9.206;2023-04-24T13:03:12;0.70;;;0.70;;
7969;SDS011;4030;52.362;9.206;2023-04-24T13:05:38;0.75;;;0.60;;
7969;SDS011;4030;52.362;9.206;2023-04-24T13:08:03;1.20;;;0.65;;
7969;SDS011;4030;52.362;9.206;2023-04-24T13:10:30;0.93;;;0.50;;
7969;SDS011;4030;52.362;9.206;2023-04-24T13:12:56;0.73;;;0.60;;
7969;SDS011;4030;52.362;9.206;2023-04-24T13:15:22;0.68;;;0.68;;
7969;SDS011;4030;52.362;9.206;2023-04-24T13:17:48;0.52;;;0.52;;
7969;SDS011;4030;52.362;9.206;2023-04-24T13:20:14;0.50;;;0.50;;
7969;SDS011;4030;52.362;9.206;2023-04-24T13:22:40;0.52;;;0.52;;
7969;SDS011;4030;52.362;9.206;2023-04-24T13:25:06;0.50;;;0.50;;
7969;SDS011;4030;52.362;9.206;2023-04-24T13:27:32;0.60;;;0.60;;
7969;SDS011;4030;52.362;9.206;2023-04-24T13:29:58;0.68;;;0.60;;
7969;SDS011;4030;52.362;9.206;2023-04-24T13:32:24;0.65;;;0.65;;
7969;SDS011;4030;52.362;9.206;2023-04-24T13:34:51;0.95;;;0.60;;
7969;SDS011;4030;52.362;9.206;2023-04-24T13:37:16;0.60;;;0.60;;
7969;SDS011;4030;52.362;9.206;2023-04-24T13:39:42;0.65;;;0.65;;
7969;SDS011;4030;52.362;9.206;2023-04-24T13:42:08;0.80;;;0.70;;
7969;SDS011;4030;52.362;9.206;2023-04-24T13:44:35;0.80;;;0.70;;
7969;SDS011;4030;52.362;9.206;2023-04-24T13:47:01;0.85;;;0.70;;
7969;SDS011;4030;52.362;9.206;2023-04-24T13:49:27;0.77;;;0.73;;
7969;SDS011;4030;52.362;9.206;2023-04-24T13:51:53;0.90;;;0.70;;
7969;SDS011;4030;52.362;9.206;2023-04-24T13:54:20;0.77;;;0.77;;
7969;SDS011;4030;52.362;9.206;2023-04-24T13:56:48;1.25;;;0.80;;
7969;SDS011;4030;52.362;9.206;2023-04-24T13:59:14;1.33;;;0.80;;
7969;SDS011;4030;52.362;9.206;2023-04-24T14:01:40;0.70;;;0.70;;
7969;SDS011;4030;52.362;9.206;2023-04-24T14:04:06;0.80;;;0.80;;
7969;SDS011;4030;52.362;9.206;2023-04-24T14:06:31;0.82;;;0.75;;
7969;SDS011;4030;52.362;9.206;2023-04-24T14:08:57;1.33;;;0.80;;
7969;SDS011;4030;52.362;9.206;2023-04-24T14:11:23;1.10;;;1.00;;
7969;SDS011;4030;52.362;9.206;2023-04-24T14:13:49;1.70;;;1.20;;
7969;SDS011;4030;52.362;9.206;2023-04-24T14:16:15;1.35;;;1.10;;
7969;SDS011;4030;52.362;9.206;2023-04-24T14:18:40;1.55;;;1.20;;
7969;SDS011;4030;52.362;9.206;2023-04-24T14:21:06;1.45;;;1.05;;
7969;SDS011;4030;52.362;9.206;2023-04-24T14:23:32;3.10;;;1.10;;
7969;SDS011;4030;52.362;9.206;2023-04-24T14:25:58;2.33;;;1.48;;
7969;SDS011;4030;52.362;9.206;2023-04-24T14:28:24;2.22;;;1.50;;
7969;SDS011;4030;52.362;9.206;2023-04-24T14:30:51;2.63;;;1.67;;
7969;SDS011;4030;52.362;9.206;2023-04-24T14:33:17;3.08;;;1.73;;
7969;SDS011;4030;52.362;9.206;2023-04-24T14:35:43;3.25;;;2.00;;
7969;SDS011;4030;52.362;9.206;2023-04-24T14:38:09;3.35;;;1.88;;
7969;SDS011;4030;52.362;9.206;2023-04-24T14:40:35;2.65;;;1.90;;
7969;SDS011;4030;52.362;9.206;2023-04-24T14:43:02;2.40;;;2.00;;
7969;SDS011;4030;52.362;9.206;2023-04-24T14:45:28;3.80;;;2.00;;
7969;SDS011;4030;52.362;9.206;2023-04-24T14:47:54;3.38;;;2.15;;
7969;SDS011;4030;52.362;9.206;2023-04-24T14:50:21;2.50;;;1.80;;
7969;SDS011;4030;52.362;9.206;2023-04-24T14:52:46;3.45;;;2.00;;
7969;SDS011;4030;52.362;9.206;2023-04-24T14:55:12;2.85;;;1.88;;
7969;SDS011;4030;52.362;9.206;2023-04-24T14:57:39;2.80;;;1.70;;
7969;SDS011;4030;52.362;9.206;2023-04-24T15:00:05;2.33;;;1.65;;
7969;SDS011;4030;52.362;9.206;2023-04-24T15:02:34;3.25;;;2.00;;
7969;SDS011;4030;52.362;9.206;2023-04-24T15:05:02;4.88;;;1.70;;
7969;SDS011;4030;52.362;9.206;2023-04-24T15:07:29;3.13;;;1.60;;
7969;SDS011;4030;52.362;9.206;2023-04-24T15:09:56;3.35;;;2.00;;
7969;SDS011;4030;52.362;9.206;2023-04-24T15:12:21;3.28;;;1.83;;
7969;SDS011;4030;52.362;9.206;2023-04-24T15:14:47;2.90;;;1.70;;
7969;SDS011;4030;52.362;9.206;2023-04-24T15:17:13;3.00;;;1.60;;
7969;SDS011;4030;52.362;9.206;2023-04-24T15:19:39;2.38;;;1.60;;
7969;SDS011;4030;52.362;9.206;2023-04-24T15:22:05;2.00;;;1.60;;
7969;SDS011;4030;52.362;9.206;2023-04-24T15:24:31;2.70;;;1.70;;